Time;durP1;ratioP1;P1;durP2;ratioP2;P2;SDS_P1;SDS_P2;PMS_P1;PMS_P2;Temp;Humidity;BMP_temperature;BMP_pressure;BME280_temperature;BME280_humidity;BME280_pressure;Samples;Min_cycle;Max_cycle;Signal;HPM_P1;HPM_P2
2022/04/12 00:00:09;;;;;;;;;4.50;4.50;;;;;;;;5023955;28;45669;-62
2022/04/12 00:02:34;;;;;;;;;4.00;4.00;;;;;;;;5023435;28;45389;-61
2022/04/12 00:05:00;;;;;;;;;3.75;3.75;;;;;;;;5015467;28;45326;-62
2022/04/12 00:07:25;;;;;;;;;5.25;5.00;;;;;;;;5013541;28;45378;-62
2022/04/12 00:09:50;;;;;;;;;5.00;5.00;;;;;;;;5012373;28;46525;-62
2022/04/12 00:12:15;;;;;;;;;3.00;3.00;;;;;;;;5018553;28;45950;-61
2022/04/12 00:14:41;;;;;;;;;5.00;4.25;;;;;;;;5021121;28;46006;-62
2022/04/12 00:19:50;;;;;;;;;6.25;4.50;;;;;;;;5016973;28;47624;-61
2022/04/12 00:22:15;;;;;;;;;4.00;4.00;;;;;;;;5020073;28;45609;-60
2022/04/12 00:24:40;;;;;;;;;0.00;0.00;;;;;;;;5022251;28;45602;-61
2022/04/12 00:27:05;;;;;;;;;5.00;3.00;;;;;;;;5018363;28;45496;-61
2022/04/12 00:29:32;;;;;;;;;3.75;3.75;;;;;;;;5013131;28;45916;-61
2022/04/12 00:31:57;;;;;;;;;5.00;3.75;;;;;;;;5016602;28;45419;-61
2022/04/12 00:34:24;;;;;;;;;3.00;3.00;;;;;;;;5017270;28;45485;-61
2022/04/12 00:36:49;;;;;;;;;3.00;3.00;;;;;;;;5023215;28;45458;-61
2022/04/12 00:39:15;;;;;;;;;3.00;2.00;;;;;;;;5020137;28;46555;-61
2022/04/12 00:41:40;;;;;;;;;5.00;5.00;;;;;;;;5024313;28;45469;-61
2022/04/12 00:44:05;;;;;;;;;4.00;3.00;;;;;;;;5017147;28;45540;-59
2022/04/12 00:46:30;;;;;;;;;3.75;3.75;;;;;;;;5019717;28;45701;-61
2022/04/12 00:48:56;;;;;;;;;4.00;4.00;;;;;;;;5020094;28;46703;-59
2022/04/12 00:51:22;;;;;;;;;7.00;6.25;;;;;;;;5016844;28;45441;-59
2022/04/12 00:53:48;;;;;;;;;4.00;4.00;;;;;;;;5016021;28;45355;-59
2022/04/12 00:56:15;;;;;;;;;5.00;5.00;;;;;;;;5016947;28;45501;-59
2022/04/12 00:58:44;;;;;;;;;4.00;3.75;;;;;;;;5018786;28;45412;-60
2022/04/12 01:01:10;;;;;;;;;3.25;3.25;;;;;;;;5031324;28;45551;-61
2022/04/12 01:03:35;;;;;;;;;5.75;3.50;;;;;;;;5026435;28;45598;-61
2022/04/12 01:06:00;;;;;;;;;4.25;3.50;;;;;;;;5015257;28;45715;-61
2022/04/12 01:08:25;;;;;;;;;4.25;4.00;;;;;;;;5015810;28;46304;-61
2022/04/12 01:10:52;;;;;;;;;4.25;4.25;;;;;;;;5016344;28;45552;-62
2022/04/12 01:13:18;;;;;;;;;3.25;3.25;;;;;;;;5014273;28;45488;-62
2022/04/12 01:15:43;;;;;;;;;4.75;3.75;;;;;;;;5016712;28;45512;-62
2022/04/12 01:18:10;;;;;;;;;7.00;4.25;;;;;;;;5016785;28;45583;-61
2022/04/12 01:20:35;;;;;;;;;4.00;4.00;;;;;;;;5015575;28;45769;-63
2022/04/12 01:23:09;;;;;;;;;4.00;4.00;;;;;;;;5016691;28;45762;-62
2022/04/12 01:25:35;;;;;;;;;5.25;4.75;;;;;;;;5020749;28;45477;-62
2022/04/12 01:28:00;;;;;;;;;4.00;4.00;;;;;;;;5018453;28;46533;-61
2022/04/12 01:30:26;;;;;;;;;3.00;3.00;;;;;;;;5016226;28;45842;-62
2022/04/12 01:32:51;;;;;;;;;3.50;3.50;;;;;;;;5024933;28;45738;-61
2022/04/12 01:35:16;;;;;;;;;4.50;3.25;;;;;;;;5016026;28;45404;-62
2022/04/12 01:37:41;;;;;;;;;3.50;3.50;;;;;;;;5016250;28;46369;-62
2022/04/12 01:40:09;;;;;;;;;4.00;4.00;;;;;;;;5015510;28;45509;-62
2022/04/12 01:42:34;;;;;;;;;5.00;5.00;;;;;;;;5014837;28;45859;-61
2022/04/12 01:44:59;;;;;;;;;4.00;3.00;;;;;;;;5016280;28;45448;-61
2022/04/12 01:47:25;;;;;;;;;4.00;4.00;;;;;;;;5014823;28;48422;-61
2022/04/12 01:49:50;;;;;;;;;5.75;4.00;;;;;;;;5015884;28;45567;-61
2022/04/12 01:52:15;;;;;;;;;4.50;3.00;;;;;;;;5021187;28;45433;-61
2022/04/12 01:54:41;;;;;;;;;4.25;4.00;;;;;;;;5021028;28;45626;-62
2022/04/12 01:57:06;;;;;;;;;5.00;5.00;;;;;;;;5020110;28;46432;-61
2022/04/12 01:59:32;;;;;;;;;5.00;5.00;;;;;;;;5013604;28;46237;-62
2022/04/12 02:01:57;;;;;;;;;3.25;3.25;;;;;;;;5015928;28;45899;-61
2022/04/12 02:04:22;;;;;;;;;3.25;3.25;;;;;;;;5015306;28;45353;-61
2022/04/12 02:06:48;;;;;;;;;4.00;4.00;;;;;;;;5024786;28;46768;-63
2022/04/12 02:09:13;;;;;;;;;4.75;4.75;;;;;;;;5015631;28;45481;-61
2022/04/12 02:11:38;;;;;;;;;4.00;4.00;;;;;;;;5015254;28;45630;-61
2022/04/12 02:14:03;;;;;;;;;7.25;5.75;;;;;;;;5015886;28;45492;-62
2022/04/12 02:16:29;;;;;;;;;1.75;1.75;;;;;;;;5015342;28;45551;-63
2022/04/12 02:18:54;;;;;;;;;5.25;5.25;;;;;;;;5014743;28;45473;-62
2022/04/12 02:21:19;;;;;;;;;4.00;3.00;;;;;;;;5026193;28;45735;-61
2022/04/12 02:23:44;;;;;;;;;4.00;4.00;;;;;;;;5015030;28;45546;-61
2022/04/12 02:26:09;;;;;;;;;4.50;3.50;;;;;;;;5015178;28;46577;-61
2022/04/12 02:28:35;;;;;;;;;6.50;5.00;;;;;;;;5015164;28;45277;-62
2022/04/12 02:31:00;;;;;;;;;4.75;4.75;;;;;;;;5014782;28;45491;-61
2022/04/12 02:33:25;;;;;;;;;6.75;5.25;;;;;;;;5023649;28;45487;-61
2022/04/12 02:35:50;;;;;;;;;4.75;4.75;;;;;;;;5020229;28;47333;-61
2022/04/12 02:38:16;;;;;;;;;5.00;5.00;;;;;;;;5031255;28;45942;-62
2022/04/12 02:40:41;;;;;;;;;4.75;4.00;;;;;;;;5018266;28;45823;-62
2022/04/12 02:43:06;;;;;;;;;3.50;3.50;;;;;;;;5014659;28;45795;-61
2022/04/12 02:45:31;;;;;;;;;5.25;5.25;;;;;;;;5014942;28;45699;-61
2022/04/12 02:47:57;;;;;;;;;4.00;4.00;;;;;;;;5014740;28;45585;-62
2022/04/12 02:50:22;;;;;;;;;2.50;2.50;;;;;;;;5013612;28;45559;-60
2022/04/12 02:52:47;;;;;;;;;4.25;3.25;;;;;;;;5020633;28;45538;-60
2022/04/12 02:55:13;;;;;;;;;4.25;4.25;;;;;;;;5017823;28;45472;-60
2022/04/12 02:57:38;;;;;;;;;4.25;4.00;;;;;;;;5024148;28;45527;-61
2022/04/12 03:00:04;;;;;;;;;4.00;4.00;;;;;;;;5018157;28;45502;-61
2022/04/12 03:02:29;;;;;;;;;4.00;4.00;;;;;;;;5016989;28;45583;-60
2022/04/12 03:04:54;;;;;;;;;4.00;4.00;;;;;;;;5028196;28;47694;-60
2022/04/12 03:07:20;;;;;;;;;4.25;4.00;;;;;;;;5028365;28;45503;-61
2022/04/12 03:09:45;;;;;;;;;6.00;5.25;;;;;;;;5027281;28;45656;-61
2022/04/12 03:12:10;;;;;;;;;3.00;3.00;;;;;;;;5022121;28;45665;-64
2022/04/12 03:14:36;;;;;;;;;3.50;3.50;;;;;;;;5017363;28;47310;-61
2022/04/12 03:17:01;;;;;;;;;3.50;3.50;;;;;;;;5028877;28;46153;-62
2022/04/12 03:19:27;;;;;;;;;4.25;4.00;;;;;;;;5015353;28;45392;-62
2022/04/12 03:21:52;;;;;;;;;6.75;4.75;;;;;;;;5026641;28;45682;-61
2022/04/12 03:24:17;;;;;;;;;3.75;3.75;;;;;;;;5020860;28;45635;-61
2022/04/12 03:26:42;;;;;;;;;4.25;4.00;;;;;;;;5020275;28;45611;-62
2022/04/12 03:29:09;;;;;;;;;6.00;4.00;;;;;;;;5016785;28;45555;-61
2022/04/12 03:31:34;;;;;;;;;4.25;3.50;;;;;;;;5013875;28;45740;-62
2022/04/12 03:34:00;;;;;;;;;5.00;5.00;;;;;;;;5026259;28;46710;-60
2022/04/12 03:36:25;;;;;;;;;4.00;4.00;;;;;;;;5020233;28;46151;-60
2022/04/12 03:38:53;;;;;;;;;4.75;3.75;;;;;;;;5019447;28;50279;-60
2022/04/12 03:41:22;;;;;;;;;4.25;4.25;;;;;;;;5025205;28;45758;-60
2022/04/12 03:43:47;;;;;;;;;2.50;2.50;;;;;;;;5026140;28;45844;-61
2022/04/12 03:46:13;;;;;;;;;4.25;4.25;;;;;;;;5020636;28;45539;-61
2022/04/12 03:48:38;;;;;;;;;4.50;4.25;;;;;;;;5014285;28;45531;-61
2022/04/12 03:51:03;;;;;;;;;1.00;1.00;;;;;;;;5026525;28;45782;-60
2022/04/12 03:53:29;;;;;;;;;5.25;5.00;;;;;;;;5025321;28;46508;-61
2022/04/12 03:55:55;;;;;;;;;4.00;3.00;;;;;;;;5013426;28;45530;-61
2022/04/12 03:58:21;;;;;;;;;2.75;2.75;;;;;;;;5027481;28;45424;-61
2022/04/12 04:00:46;;;;;;;;;4.50;4.00;;;;;;;;5017774;28;45700;-62
2022/04/12 04:03:11;;;;;;;;;4.00;3.25;;;;;;;;5022910;28;45841;-60
2022/04/12 04:05:37;;;;;;;;;3.50;3.00;;;;;;;;5017963;28;45452;-61
2022/04/12 04:08:02;;;;;;;;;4.00;4.00;;;;;;;;5029941;28;45429;-60
2022/04/12 04:10:27;;;;;;;;;2.75;2.75;;;;;;;;5029155;28;45497;-60
2022/04/12 04:12:55;;;;;;;;;6.00;5.50;;;;;;;;5019402;28;45465;-59
2022/04/12 04:15:21;;;;;;;;;4.00;4.00;;;;;;;;5022020;28;45428;-59
2022/04/12 04:17:46;;;;;;;;;3.50;3.50;;;;;;;;5026217;28;45483;-62
2022/04/12 04:20:12;;;;;;;;;4.00;4.00;;;;;;;;5028258;28;45679;-62
2022/04/12 04:22:40;;;;;;;;;2.75;2.75;;;;;;;;5015534;28;45609;-62
2022/04/12 04:25:05;;;;;;;;;3.50;3.00;;;;;;;;5030244;28;45879;-62
2022/04/12 04:27:31;;;;;;;;;5.50;3.00;;;;;;;;5024808;28;45921;-62
2022/04/12 04:29:56;;;;;;;;;2.25;2.25;;;;;;;;5037688;28;45593;-61
2022/04/12 04:32:22;;;;;;;;;4.00;4.00;;;;;;;;5032675;28;47517;-61
2022/04/12 04:34:47;;;;;;;;;2.00;2.00;;;;;;;;5032298;28;45589;-61
2022/04/12 04:37:12;;;;;;;;;4.00;4.00;;;;;;;;5035641;28;45395;-61
2022/04/12 04:39:38;;;;;;;;;3.00;3.00;;;;;;;;5032025;28;45375;-61
2022/04/12 04:42:05;;;;;;;;;3.25;2.25;;;;;;;;5025164;28;46491;-62
2022/04/12 04:44:30;;;;;;;;;3.00;3.00;;;;;;;;5029062;28;45495;-62
2022/04/12 04:46:55;;;;;;;;;2.00;2.00;;;;;;;;5026059;28;45526;-61
2022/04/12 04:49:21;;;;;;;;;2.00;2.00;;;;;;;;5026359;28;45709;-63
2022/04/12 04:51:46;;;;;;;;;3.25;3.25;;;;;;;;5033444;28;46379;-61
2022/04/12 04:54:11;;;;;;;;;5.25;4.25;;;;;;;;5023165;28;45508;-62
2022/04/12 04:56:36;;;;;;;;;3.00;3.00;;;;;;;;5015776;28;45504;-62
2022/04/12 04:59:02;;;;;;;;;3.50;3.50;;;;;;;;5018891;28;46049;-62
2022/04/12 05:01:27;;;;;;;;;3.00;3.00;;;;;;;;5016679;28;45595;-62
2022/04/12 05:03:52;;;;;;;;;2.00;2.00;;;;;;;;5029915;28;45851;-62
2022/04/12 05:06:18;;;;;;;;;3.00;3.00;;;;;;;;5023332;28;45725;-62
2022/04/12 05:08:43;;;;;;;;;2.25;2.25;;;;;;;;5020579;28;45400;-62
2022/04/12 05:11:09;;;;;;;;;2.00;2.00;;;;;;;;5030656;28;47024;-62
2022/04/12 05:13:34;;;;;;;;;4.00;4.00;;;;;;;;5016696;28;45781;-62
2022/04/12 05:15:59;;;;;;;;;3.00;3.00;;;;;;;;5030581;28;45583;-62
2022/04/12 05:18:24;;;;;;;;;3.00;3.00;;;;;;;;5017973;28;45746;-62
2022/04/12 05:20:50;;;;;;;;;4.00;4.00;;;;;;;;5021125;28;45608;-62
2022/04/12 05:23:15;;;;;;;;;2.25;2.25;;;;;;;;5030846;28;45473;-62
2022/04/12 05:25:40;;;;;;;;;3.75;3.75;;;;;;;;5031705;28;45548;-62
2022/04/12 05:28:06;;;;;;;;;3.00;3.00;;;;;;;;5030101;28;45376;-62
2022/04/12 05:30:31;;;;;;;;;2.50;2.50;;;;;;;;5020463;28;45632;-62
2022/04/12 05:32:57;;;;;;;;;2.75;2.75;;;;;;;;5021223;28;45800;-61
2022/04/12 05:35:22;;;;;;;;;4.25;4.00;;;;;;;;5026431;28;45742;-62
2022/04/12 05:37:48;;;;;;;;;3.25;3.25;;;;;;;;5031374;28;45637;-62
2022/04/12 05:40:14;;;;;;;;;3.25;3.25;;;;;;;;5029963;28;47044;-62
2022/04/12 05:42:40;;;;;;;;;4.50;3.00;;;;;;;;5032043;28;45535;-63
2022/04/12 05:45:06;;;;;;;;;4.00;4.00;;;;;;;;5031002;28;45456;-62
2022/04/12 05:47:44;;;;;;;;;3.50;3.50;;;;;;;;5032199;28;45694;-63
2022/04/12 05:50:11;;;;;;;;;6.00;4.25;;;;;;;;5032367;28;45766;-63
2022/04/12 05:52:36;;;;;;;;;5.00;5.00;;;;;;;;5032287;28;45515;-63
2022/04/12 05:55:01;;;;;;;;;3.50;3.50;;;;;;;;5029503;28;45609;-63
2022/04/12 05:57:26;;;;;;;;;4.75;4.00;;;;;;;;5029084;28;45523;-63
2022/04/12 05:59:51;;;;;;;;;5.00;3.75;;;;;;;;5031873;28;46395;-62
2022/04/12 06:02:17;;;;;;;;;3.50;3.50;;;;;;;;5032147;28;45514;-62
2022/04/12 06:04:42;;;;;;;;;3.25;3.25;;;;;;;;5030014;28;45395;-63
2022/04/12 06:07:07;;;;;;;;;3.50;3.00;;;;;;;;5033665;28;45546;-62
2022/04/12 06:09:32;;;;;;;;;5.50;5.00;;;;;;;;5027283;28;47542;-62
2022/04/12 06:11:58;;;;;;;;;3.00;3.00;;;;;;;;5024754;28;45574;-62
2022/04/12 06:14:23;;;;;;;;;4.00;4.00;;;;;;;;5032097;28;45870;-62
2022/04/12 06:16:48;;;;;;;;;4.00;4.00;;;;;;;;5032172;28;45642;-62
2022/04/12 06:19:13;;;;;;;;;6.00;3.75;;;;;;;;5034067;28;46360;-63
2022/04/12 06:21:38;;;;;;;;;4.50;3.50;;;;;;;;5031816;28;45508;-62
2022/04/12 06:24:04;;;;;;;;;5.00;4.25;;;;;;;;5025963;28;45562;-62
2022/04/12 06:26:29;;;;;;;;;4.00;4.00;;;;;;;;5020673;28;45567;-62
2022/04/12 06:28:54;;;;;;;;;3.75;3.75;;;;;;;;5029307;28;47676;-60
2022/04/12 06:31:20;;;;;;;;;4.75;3.25;;;;;;;;5032906;28;45459;-62
2022/04/12 06:33:45;;;;;;;;;3.00;3.00;;;;;;;;5028972;28;45481;-62
2022/04/12 06:36:10;;;;;;;;;5.00;4.00;;;;;;;;5027501;28;45506;-62
2022/04/12 06:38:35;;;;;;;;;3.75;3.75;;;;;;;;5031473;28;45896;-63
2022/04/12 06:41:01;;;;;;;;;3.00;3.00;;;;;;;;5028914;28;45621;-62
2022/04/12 06:43:26;;;;;;;;;4.00;4.00;;;;;;;;5028885;28;45678;-62
2022/04/12 06:45:51;;;;;;;;;2.00;2.00;;;;;;;;5028258;28;45921;-62
2022/04/12 06:48:16;;;;;;;;;2.50;2.50;;;;;;;;5026561;28;46133;-63
2022/04/12 06:50:42;;;;;;;;;5.00;3.75;;;;;;;;5030946;28;45401;-62
2022/04/12 06:53:07;;;;;;;;;5.00;3.75;;;;;;;;5031481;28;45412;-63
2022/04/12 06:55:33;;;;;;;;;6.50;4.25;;;;;;;;5031417;28;45544;-61
2022/04/12 06:57:58;;;;;;;;;6.00;4.00;;;;;;;;5028433;28;46746;-62
2022/04/12 07:00:23;;;;;;;;;6.00;6.00;;;;;;;;5027130;28;45483;-61
2022/04/12 07:02:48;;;;;;;;;3.75;3.75;;;;;;;;5029951;28;45336;-61
2022/04/12 07:05:14;;;;;;;;;4.00;4.00;;;;;;;;5030240;28;45391;-62
2022/04/12 07:07:40;;;;;;;;;5.00;3.50;;;;;;;;5029557;28;47455;-61
2022/04/12 07:10:06;;;;;;;;;2.75;2.75;;;;;;;;5033030;28;45388;-62
2022/04/12 07:12:31;;;;;;;;;2.25;2.25;;;;;;;;5027763;28;45731;-63
2022/04/12 07:14:56;;;;;;;;;3.25;3.25;;;;;;;;5023381;28;47816;-61
2022/04/12 07:17:21;;;;;;;;;6.00;5.75;;;;;;;;5030640;28;46374;-61
2022/04/12 07:19:47;;;;;;;;;5.00;3.00;;;;;;;;5030857;28;45371;-61
2022/04/12 07:22:12;;;;;;;;;4.00;4.00;;;;;;;;5033352;28;45384;-61
2022/04/12 07:24:37;;;;;;;;;3.25;3.25;;;;;;;;5030826;28;45464;-60
2022/04/12 07:27:02;;;;;;;;;3.50;3.00;;;;;;;;5030757;28;46058;-60
2022/04/12 07:29:28;;;;;;;;;5.75;3.00;;;;;;;;5030623;28;45819;-60
2022/04/12 07:31:53;;;;;;;;;2.50;2.50;;;;;;;;5027170;28;45829;-61
2022/04/12 07:34:18;;;;;;;;;3.00;2.25;;;;;;;;5039327;28;45502;-61
2022/04/12 07:36:47;;;;;;;;;3.50;2.50;;;;;;;;5029922;28;46263;-61
2022/04/12 07:39:13;;;;;;;;;5.50;5.00;;;;;;;;5025551;28;45706;-61
2022/04/12 07:41:39;;;;;;;;;5.00;5.00;;;;;;;;5039852;28;45499;-61
2022/04/12 07:44:04;;;;;;;;;3.00;3.00;;;;;;;;5034146;28;45844;-61
2022/04/12 07:46:29;;;;;;;;;6.00;4.75;;;;;;;;5038595;28;46164;-61
2022/04/12 07:48:55;;;;;;;;;5.00;2.75;;;;;;;;5035640;28;45436;-61
2022/04/12 07:51:20;;;;;;;;;4.50;4.50;;;;;;;;5030069;28;45637;-61
2022/04/12 07:53:45;;;;;;;;;3.00;3.00;;;;;;;;5037626;28;45699;-61
2022/04/12 07:56:11;;;;;;;;;4.00;4.00;;;;;;;;5023305;28;46231;-61
2022/04/12 07:58:36;;;;;;;;;3.00;3.00;;;;;;;;5037750;28;45660;-61
2022/04/12 08:01:01;;;;;;;;;3.00;3.00;;;;;;;;5052014;28;45544;-60
2022/04/12 08:03:27;;;;;;;;;3.25;2.75;;;;;;;;5027924;28;45868;-63
2022/04/12 08:05:52;;;;;;;;;2.75;2.75;;;;;;;;5020041;28;46744;-62
2022/04/12 08:08:18;;;;;;;;;4.50;3.75;;;;;;;;5029589;28;45443;-61
2022/04/12 08:10:43;;;;;;;;;3.25;3.00;;;;;;;;5033893;28;45403;-61
2022/04/12 08:13:08;;;;;;;;;2.50;2.50;;;;;;;;5036071;28;45532;-61
2022/04/12 08:15:34;;;;;;;;;2.00;2.00;;;;;;;;5034152;28;45690;-62
2022/04/12 08:17:59;;;;;;;;;4.75;3.75;;;;;;;;5033903;28;45745;-60
2022/04/12 08:20:24;;;;;;;;;4.25;3.00;;;;;;;;5032549;28;45665;-61
2022/04/12 08:22:52;;;;;;;;;3.00;2.00;;;;;;;;5032577;28;45690;-60
2022/04/12 08:25:17;;;;;;;;;3.50;1.50;;;;;;;;5035357;28;46220;-61
2022/04/12 08:27:42;;;;;;;;;1.75;1.75;;;;;;;;5033523;28;45434;-61
2022/04/12 08:30:08;;;;;;;;;3.75;2.00;;;;;;;;5033737;28;45779;-61
2022/04/12 08:32:34;;;;;;;;;1.25;1.25;;;;;;;;5032111;28;45488;-61
2022/04/12 08:34:59;;;;;;;;;2.50;2.50;;;;;;;;5033475;28;45574;-61
2022/04/12 08:37:24;;;;;;;;;1.50;1.50;;;;;;;;5034504;28;45510;-61
2022/04/12 08:39:50;;;;;;;;;2.00;1.75;;;;;;;;5034548;28;45508;-61
2022/04/12 08:42:15;;;;;;;;;2.50;1.75;;;;;;;;5033186;28;45779;-61
2022/04/12 08:44:44;;;;;;;;;2.75;2.75;;;;;;;;5033013;28;46922;-61
2022/04/12 08:47:09;;;;;;;;;3.25;0.75;;;;;;;;5033149;28;45494;-61
2022/04/12 08:49:35;;;;;;;;;0.75;0.75;;;;;;;;5033307;28;45661;-62
2022/04/12 08:52:01;;;;;;;;;2.50;1.25;;;;;;;;5035027;28;45546;-61
2022/04/12 08:54:27;;;;;;;;;2.00;1.00;;;;;;;;5034219;28;46619;-61
2022/04/12 08:56:52;;;;;;;;;3.00;0.75;;;;;;;;5030307;28;46116;-60
2022/04/12 08:59:18;;;;;;;;;3.00;1.50;;;;;;;;5022762;28;45682;-61
2022/04/12 09:01:44;;;;;;;;;0.00;0.00;;;;;;;;5033338;28;45373;-61
2022/04/12 09:04:10;;;;;;;;;2.00;2.00;;;;;;;;5034992;28;45583;-61
2022/04/12 09:06:35;;;;;;;;;3.00;2.00;;;;;;;;5032861;28;45720;-61
2022/04/12 09:09:15;;;;;;;;;1.50;1.50;;;;;;;;5033007;28;45572;-61
2022/04/12 09:11:41;;;;;;;;;2.50;0.00;;;;;;;;5032874;28;45365;-61
2022/04/12 09:14:06;;;;;;;;;0.75;0.00;;;;;;;;5032933;28;45700;-62
2022/04/12 09:16:31;;;;;;;;;3.00;2.00;;;;;;;;5033161;28;45486;-62
2022/04/12 09:18:57;;;;;;;;;2.50;2.00;;;;;;;;5035219;28;45714;-61
2022/04/12 09:21:23;;;;;;;;;1.75;0.75;;;;;;;;5032790;28;45373;-60
2022/04/12 09:23:52;;;;;;;;;2.00;2.00;;;;;;;;5032510;28;47672;-60
2022/04/12 09:26:20;;;;;;;;;1.25;1.25;;;;;;;;5031383;28;45470;-61
2022/04/12 09:28:46;;;;;;;;;1.00;1.00;;;;;;;;5032747;28;45529;-61
2022/04/12 09:31:15;;;;;;;;;3.25;1.75;;;;;;;;5034541;28;45550;-61
2022/04/12 09:33:41;;;;;;;;;1.00;1.00;;;;;;;;5030979;28;48675;-61
2022/04/12 09:36:07;;;;;;;;;2.75;1.00;;;;;;;;5032101;28;45599;-61
2022/04/12 09:38:36;;;;;;;;;0.75;0.75;;;;;;;;5031258;28;47817;-61
2022/04/12 09:41:31;;;;;;;;;2.50;1.00;;;;;;;;5032664;28;45518;-60
2022/04/12 09:43:56;;;;;;;;;1.00;1.00;;;;;;;;5012587;28;47410;-61
2022/04/12 09:46:22;;;;;;;;;1.75;1.75;;;;;;;;5033322;28;45394;-61
2022/04/12 09:48:48;;;;;;;;;2.00;0.50;;;;;;;;5033139;28;45359;-61
2022/04/12 09:51:14;;;;;;;;;2.50;2.00;;;;;;;;5032117;28;45865;-61
2022/04/12 09:53:40;;;;;;;;;1.00;1.00;;;;;;;;5031936;28;45952;-62
2022/04/12 09:56:19;;;;;;;;;0.75;0.75;;;;;;;;5030892;28;45511;-61
2022/04/12 09:58:46;;;;;;;;;2.00;2.00;;;;;;;;5015049;28;45482;-61
2022/04/12 10:01:12;;;;;;;;;1.00;1.00;;;;;;;;5034266;28;45416;-60
2022/04/12 10:03:37;;;;;;;;;1.00;1.00;;;;;;;;5030823;28;45514;-61
2022/04/12 10:06:03;;;;;;;;;1.00;1.00;;;;;;;;5031844;28;45626;-61
2022/04/12 10:08:30;;;;;;;;;1.00;1.00;;;;;;;;5030530;28;45442;-61
2022/04/12 10:10:55;;;;;;;;;2.25;2.25;;;;;;;;5030676;28;45570;-61
2022/04/12 10:13:21;;;;;;;;;0.50;0.00;;;;;;;;5032874;28;46947;-61
2022/04/12 10:15:46;;;;;;;;;1.50;0.75;;;;;;;;5032672;28;45538;-61
2022/04/12 10:18:15;;;;;;;;;1.00;1.00;;;;;;;;5027618;28;48887;-61
2022/04/12 10:20:40;;;;;;;;;1.75;1.75;;;;;;;;5020660;28;45686;-60
2022/04/12 10:23:06;;;;;;;;;1.00;1.00;;;;;;;;5031698;28;46325;-60
2022/04/12 10:25:31;;;;;;;;;2.50;2.00;;;;;;;;5031946;28;45691;-61
2022/04/12 10:27:58;;;;;;;;;2.00;2.00;;;;;;;;5031539;28;45640;-60
2022/04/12 10:30:27;;;;;;;;;1.00;1.00;;;;;;;;5031858;28;45483;-61
2022/04/12 10:33:02;;;;;;;;;6.25;4.25;;;;;;;;5026767;28;46050;-61
2022/04/12 10:35:28;;;;;;;;;2.00;2.00;;;;;;;;5021262;28;45615;-60
2022/04/12 10:37:59;;;;;;;;;2.00;1.00;;;;;;;;5030220;28;45451;-61
2022/04/12 10:40:25;;;;;;;;;2.00;0.75;;;;;;;;5032831;28;45416;-61
2022/04/12 10:42:52;;;;;;;;;1.50;1.50;;;;;;;;5032074;28;45708;-60
2022/04/12 10:45:26;;;;;;;;;1.00;1.00;;;;;;;;5031004;28;45862;-60
2022/04/12 10:47:55;;;;;;;;;1.75;1.75;;;;;;;;5031417;28;45547;-61
2022/04/12 10:50:20;;;;;;;;;1.00;1.00;;;;;;;;5031427;28;45605;-61
2022/04/12 10:52:48;;;;;;;;;1.75;1.75;;;;;;;;5031326;28;45928;-61
2022/04/12 10:55:13;;;;;;;;;2.25;1.75;;;;;;;;5013684;28;45515;-61
2022/04/12 10:57:39;;;;;;;;;2.00;2.00;;;;;;;;5031122;28;47602;-61
2022/04/12 11:00:04;;;;;;;;;1.00;1.00;;;;;;;;5031298;28;45494;-61
2022/04/12 11:02:35;;;;;;;;;2.00;1.25;;;;;;;;5030997;28;45704;-61
2022/04/12 11:05:01;;;;;;;;;2.00;1.00;;;;;;;;5031136;28;45395;-61
2022/04/12 11:07:27;;;;;;;;;4.00;3.00;;;;;;;;5028686;28;45589;-61
2022/04/12 11:10:11;;;;;;;;;2.00;2.00;;;;;;;;5032076;28;46010;-61
2022/04/12 11:12:40;;;;;;;;;1.00;1.00;;;;;;;;5030618;28;46521;-61
2022/04/12 11:15:21;;;;;;;;;1.50;1.50;;;;;;;;5030581;28;45441;-61
2022/04/12 11:17:46;;;;;;;;;2.25;2.25;;;;;;;;5030976;28;45376;-60
2022/04/12 11:20:22;;;;;;;;;1.00;1.00;;;;;;;;5031201;28;45580;-60
2022/04/12 11:22:55;;;;;;;;;3.00;1.00;;;;;;;;5029795;28;48529;-61
2022/04/12 11:25:22;;;;;;;;;1.50;1.50;;;;;;;;5028722;28;45627;-60
2022/04/12 11:27:54;;;;;;;;;2.00;2.00;;;;;;;;5031391;28;45585;-61
2022/04/12 11:30:20;;;;;;;;;2.00;2.00;;;;;;;;5026239;28;45750;-60
2022/04/12 11:32:45;;;;;;;;;2.00;1.50;;;;;;;;5021284;28;45384;-61
2022/04/12 11:35:10;;;;;;;;;2.75;1.00;;;;;;;;5029481;28;45584;-61
2022/04/12 11:37:39;;;;;;;;;1.00;1.00;;;;;;;;5031165;28;45337;-61
2022/04/12 11:40:05;;;;;;;;;0.00;0.00;;;;;;;;5033012;28;45776;-60
2022/04/12 11:42:30;;;;;;;;;1.25;1.25;;;;;;;;5030556;28;46415;-62
2022/04/12 11:44:57;;;;;;;;;2.75;2.75;;;;;;;;5026069;28;46041;-62
2022/04/12 11:47:27;;;;;;;;;1.00;1.00;;;;;;;;5018313;28;45773;-60
2022/04/12 11:49:52;;;;;;;;;3.00;2.00;;;;;;;;5030872;28;45341;-62
2022/04/12 11:52:18;;;;;;;;;2.00;2.00;;;;;;;;5032274;28;45373;-61
2022/04/12 11:54:45;;;;;;;;;2.75;2.25;;;;;;;;5030814;28;45533;-61
2022/04/12 11:57:23;;;;;;;;;1.50;1.50;;;;;;;;5030590;28;45516;-61
2022/04/12 11:59:59;;;;;;;;;1.00;1.00;;;;;;;;5025792;28;45552;-61
2022/04/12 12:02:26;;;;;;;;;2.75;1.75;;;;;;;;5016808;28;46869;-61
2022/04/12 12:05:05;;;;;;;;;2.25;2.25;;;;;;;;5029187;28;45907;-62
2022/04/12 12:07:31;;;;;;;;;4.00;2.00;;;;;;;;5030905;28;45672;-61
2022/04/12 12:09:57;;;;;;;;;1.00;1.00;;;;;;;;5032326;28;45388;-62
2022/04/12 12:12:32;;;;;;;;;2.00;2.00;;;;;;;;5025596;28;47661;-62
2022/04/12 12:14:57;;;;;;;;;2.00;1.00;;;;;;;;5022476;28;45488;-61
2022/04/12 12:17:24;;;;;;;;;3.00;1.25;;;;;;;;5030344;28;45521;-62
2022/04/12 12:19:49;;;;;;;;;0.00;0.00;;;;;;;;5029028;28;45666;-61
2022/04/12 12:22:15;;;;;;;;;2.00;2.00;;;;;;;;5032177;28;46004;-61
2022/04/12 12:24:54;;;;;;;;;2.00;2.00;;;;;;;;5025409;28;45690;-61
2022/04/12 12:27:35;;;;;;;;;1.00;1.00;;;;;;;;5027432;28;45773;-61
2022/04/12 12:30:17;;;;;;;;;2.00;0.50;;;;;;;;5033408;28;45614;-61
2022/04/12 12:32:43;;;;;;;;;2.00;2.00;;;;;;;;5033291;28;45408;-62
2022/04/12 12:35:15;;;;;;;;;2.25;2.00;;;;;;;;5033104;28;45789;-62
2022/04/12 12:37:41;;;;;;;;;1.50;1.50;;;;;;;;5033585;28;45408;-62
2022/04/12 12:40:24;;;;;;;;;1.75;1.75;;;;;;;;5030974;28;45410;-61
2022/04/12 12:42:50;;;;;;;;;1.00;1.00;;;;;;;;5034147;28;46823;-62
2022/04/12 12:45:17;;;;;;;;;2.00;0.25;;;;;;;;5030066;28;46115;-62
2022/04/12 12:47:43;;;;;;;;;0.75;0.75;;;;;;;;5023673;28;45393;-62
2022/04/12 12:50:12;;;;;;;;;1.00;1.00;;;;;;;;5016556;28;45472;-62
2022/04/12 12:52:38;;;;;;;;;1.50;1.50;;;;;;;;5033340;28;45874;-62
2022/04/12 12:55:06;;;;;;;;;1.25;1.25;;;;;;;;5033868;28;45435;-62
2022/04/12 12:57:34;;;;;;;;;3.00;1.50;;;;;;;;5033243;28;45420;-62
2022/04/12 13:00:03;;;;;;;;;3.00;2.00;;;;;;;;5031724;28;46095;-61
2022/04/12 13:02:32;;;;;;;;;1.75;1.00;;;;;;;;5032730;28;45719;-61
2022/04/12 13:05:01;;;;;;;;;1.25;1.00;;;;;;;;5032954;28;45425;-61
2022/04/12 13:07:29;;;;;;;;;3.50;2.00;;;;;;;;5034038;28;45579;-61
2022/04/12 13:09:57;;;;;;;;;1.00;1.00;;;;;;;;5029667;28;45626;-60
2022/04/12 13:12:22;;;;;;;;;1.25;1.25;;;;;;;;5028434;28;46745;-61
2022/04/12 13:14:48;;;;;;;;;2.00;1.00;;;;;;;;5028188;28;45501;-60
2022/04/12 13:17:15;;;;;;;;;6.25;2.50;;;;;;;;5018087;28;45418;-60
2022/04/12 13:19:41;;;;;;;;;1.25;1.00;;;;;;;;5032918;28;45759;-61
2022/04/12 13:22:06;;;;;;;;;1.75;1.00;;;;;;;;5034698;28;46405;-61
2022/04/12 13:24:35;;;;;;;;;2.00;2.00;;;;;;;;5032514;28;45388;-61
2022/04/12 13:27:01;;;;;;;;;2.00;2.00;;;;;;;;5032789;28;45912;-61
2022/04/12 13:29:26;;;;;;;;;2.25;2.00;;;;;;;;5030943;28;45524;-61
2022/04/12 13:31:52;;;;;;;;;1.00;0.00;;;;;;;;5031203;28;46123;-60
2022/04/12 13:34:18;;;;;;;;;1.00;1.00;;;;;;;;5030223;28;45892;-61
2022/04/12 13:36:43;;;;;;;;;1.50;1.50;;;;;;;;5031471;28;45448;-61
2022/04/12 13:39:09;;;;;;;;;0.67;0.67;;;;;;;;5032440;28;45467;-61
2022/04/12 13:41:35;;;;;;;;;1.75;1.75;;;;;;;;5032390;28;45731;-61
2022/04/12 13:44:01;;;;;;;;;1.00;1.00;;;;;;;;5029800;28;45342;-60
2022/04/12 13:46:26;;;;;;;;;1.00;1.00;;;;;;;;5030099;28;45327;-61
2022/04/12 13:48:51;;;;;;;;;2.00;1.00;;;;;;;;5033391;28;45464;-61
2022/04/12 13:51:16;;;;;;;;;1.00;1.00;;;;;;;;5032312;28;45460;-61
2022/04/12 13:53:41;;;;;;;;;1.00;1.00;;;;;;;;5031122;28;45342;-61
2022/04/12 13:56:07;;;;;;;;;0.33;0.33;;;;;;;;5032458;28;45546;-61
2022/04/12 13:58:32;;;;;;;;;1.00;1.00;;;;;;;;5032735;28;45381;-61
2022/04/12 14:00:57;;;;;;;;;2.00;1.75;;;;;;;;5029316;28;47407;-61
2022/04/12 14:03:23;;;;;;;;;0.75;0.75;;;;;;;;5028001;28;45770;-60
2022/04/12 14:05:50;;;;;;;;;3.00;1.00;;;;;;;;5032113;28;45831;-62
2022/04/12 14:08:15;;;;;;;;;1.00;1.00;;;;;;;;5031350;28;45497;-61
2022/04/12 14:10:41;;;;;;;;;2.00;1.00;;;;;;;;5031286;28;46585;-61
2022/04/12 14:13:06;;;;;;;;;3.75;2.50;;;;;;;;5033334;28;45620;-61
2022/04/12 14:15:32;;;;;;;;;1.00;1.00;;;;;;;;5031772;28;45694;-61
2022/04/12 14:17:58;;;;;;;;;1.50;1.25;;;;;;;;5030216;28;45397;-62
2022/04/12 14:20:23;;;;;;;;;1.00;1.00;;;;;;;;5030219;28;47283;-62
2022/04/12 14:22:48;;;;;;;;;2.00;2.00;;;;;;;;5040049;28;45524;-61
2022/04/12 14:25:14;;;;;;;;;1.00;1.00;;;;;;;;5035124;28;45388;-61
2022/04/12 14:27:39;;;;;;;;;2.25;2.00;;;;;;;;5028320;28;45739;-61
2022/04/12 14:30:04;;;;;;;;;4.00;3.00;;;;;;;;5036745;28;46375;-62
2022/04/12 14:32:30;;;;;;;;;2.00;2.00;;;;;;;;5026714;28;45914;-62
2022/04/12 14:34:57;;;;;;;;;1.25;0.50;;;;;;;;5034766;28;45493;-61
2022/04/12 14:37:23;;;;;;;;;1.00;1.00;;;;;;;;5035806;28;46204;-62
2022/04/12 14:39:49;;;;;;;;;4.00;2.00;;;;;;;;5044878;28;45701;-60